ROMMA est une association bénévole à but non lucratif. Votre soutien est indispensable : ADHERER à ROMMA ou FAIRE un DON

Granges-lès-Beaumont - (26, Drôme)

Drôme des Collines (155 m)   Longitude: 04°58'E   Latitude: 45°03'N Station partenaire n°123
 

Détail journalier du     <<     >>

Température Precipitation Humidité Pression Vent Dir Rafale Dir. rafale Ensol.
Heure (°C) (mm) (%) (hPa) (km/h) (km/h) (min)
01:00 9.9063102520NNO40N0
02:00 9.2066102517N34N0
03:00 8.6068102416NNO31N0
04:00 8.2068102417N32NNE0
05:00 7.6071102415NNO34NNO0
06:00 7.3073102418NNO35N0
07:00 7.0074102416N31N0
08:00 7.7072102417NNO32N0
09:00 9.4068102521N35N0
10:00 11.4063102422N37N30
11:00 13.3058102421N39N60
12:00 15.8056102422N42NNE60
13:00 16.9056102420N42NNE20
14:00 16.8055102322N42NNE0
15:00 17.7051102320NNO39N10
16:00 17.5053102219N39N0
17:00 17.8052102219NNE42NNE10
18:00 17.6049102220N39N20
19:00 16.9051102216NNO35NNO10
20:00 15.8052102211N29N0
21:00 14.005710229N19N0
22:00 11.706610238N15NNO0
23:00 10.6068102311N18NNE0
minuit 9.6070102310NNO18NNO0

Graphique du 13-05-2019

 

Serveur OMMA